Time;durP1;ratioP1;P1;durP2;ratioP2;P2;SDS_P1;SDS_P2;PMS_P1;PMS_P2;Temp;Humidity;BMP_temperature;BMP_pressure;BME280_temperature;BME280_humidity;BME280_pressure;Samples;Min_cycle;Max_cycle;Signal;HPM_P1;HPM_P2
2023/03/16 00:01:05;;;;;;;359.50;299.57;;;-0.30;99.90;;;;;;5092029;28;20301;-50
2023/03/16 00:03:35;;;;;;;519.73;415.17;;;-0.40;99.90;;;;;;5092037;28;20276;-50
2023/03/16 00:06:03;;;;;;;677.10;474.60;;;-0.40;99.90;;;;;;5092221;28;20250;-49
2023/03/16 00:08:31;;;;;;;304.83;275.77;;;-0.40;99.90;;;;;;5092233;28;20578;-48
2023/03/16 00:11:01;;;;;;;302.97;277.93;;;-0.30;99.90;;;;;;5091508;28;20225;-50
2023/03/16 00:13:29;;;;;;;472.33;421.37;;;-0.30;99.90;;;;;;5092033;28;20254;-50
2023/03/16 00:15:59;;;;;;;439.17;400.57;;;-0.30;99.90;;;;;;5091945;28;20239;-51
2023/03/16 00:18:28;;;;;;;650.30;591.10;;;-0.40;99.90;;;;;;5091859;28;20213;-50
2023/03/16 00:21:00;;;;;;;264.70;240.57;;;-0.40;99.90;;;;;;5091244;28;20757;-50
2023/03/16 00:23:29;;;;;;;476.33;425.70;;;-0.40;99.90;;;;;;5091742;28;20233;-50
2023/03/16 00:25:58;;;;;;;307.57;283.57;;;-0.40;99.90;;;;;;5091660;28;20252;-51
2023/03/16 00:28:28;;;;;;;638.33;518.10;;;-0.40;99.90;;;;;;5091912;28;20275;-49
2023/03/16 00:30:57;;;;;;;723.13;489.43;;;-0.40;99.90;;;;;;5091583;28;20676;-50
2023/03/16 00:33:26;;;;;;;435.53;396.03;;;-0.40;99.90;;;;;;5090810;28;20229;-50
2023/03/16 00:36:00;;;;;;;1211.10;665.47;;;-0.40;99.90;;;;;;5091217;28;20211;-50
2023/03/16 00:38:34;;;;;;;693.53;528.03;;;-0.40;99.90;;;;;;5091513;28;20247;-51
2023/03/16 00:41:02;;;;;;;840.87;503.33;;;-0.50;99.90;;;;;;5091461;28;20587;-50
2023/03/16 00:43:31;;;;;;;949.77;429.80;;;-0.50;99.90;;;;;;5091281;28;20254;-50
2023/03/16 00:46:05;;;;;;;669.37;441.37;;;-0.50;99.90;;;;;;5090224;28;20287;-49
2023/03/16 00:48:34;;;;;;;1871.53;657.30;;;-0.50;99.90;;;;;;5091604;28;20301;-49
2023/03/16 00:51:05;;;;;;;447.03;398.20;;;-0.50;99.90;;;;;;5091438;28;20216;-50
2023/03/16 00:53:35;;;;;;;810.83;615.93;;;-0.60;99.90;;;;;;5091021;28;20308;-50
2023/03/16 00:56:04;;;;;;;682.00;474.53;;;-0.60;99.90;;;;;;5091492;28;20202;-49
2023/03/16 00:58:34;;;;;;;1352.83;623.87;;;-0.60;99.90;;;;;;5091284;28;20200;-51
2023/03/16 01:01:03;;;;;;;1209.67;624.83;;;-0.60;99.90;;;;;;5091411;28;20622;-50
2023/03/16 01:03:31;;;;;;;1317.70;532.30;;;-0.60;99.90;;;;;;5091187;28;20261;-50
2023/03/16 01:06:04;;;;;;;678.27;448.37;;;-0.60;99.90;;;;;;5090692;28;20211;-50
2023/03/16 01:08:34;;;;;;;447.73;404.00;;;-0.60;99.90;;;;;;5091021;28;20210;-51
2023/03/16 01:11:05;;;;;;;350.73;316.37;;;-0.60;99.90;;;;;;5090588;28;20290;-50
2023/03/16 01:13:33;;;;;;;367.30;333.23;;;-0.60;99.90;;;;;;5090528;28;20274;-50
2023/03/16 01:16:02;;;;;;;484.57;410.70;;;-0.60;99.90;;;;;;5091145;28;20293;-50
2023/03/16 01:18:33;;;;;;;567.70;505.40;;;-0.60;99.90;;;;;;5090715;28;20239;-50
2023/03/16 01:21:01;;;;;;;382.47;347.57;;;-0.70;99.90;;;;;;5090834;28;20539;-50
2023/03/16 01:23:30;;;;;;;256.03;235.23;;;-0.70;99.90;;;;;;5090420;28;20321;-50
2023/03/16 01:26:01;;;;;;;385.37;348.30;;;-0.70;99.90;;;;;;5090852;28;20203;-49
2023/03/16 01:28:30;;;;;;;483.43;435.37;;;-0.70;99.90;;;;;;5090418;28;20246;-51
2023/03/16 01:31:02;;;;;;;292.07;266.43;;;-0.80;99.90;;;;;;5090570;28;20214;-50
2023/03/16 01:33:30;;;;;;;239.93;218.17;;;-0.80;99.90;;;;;;5090278;28;20287;-50
2023/03/16 01:36:01;;;;;;;397.17;361.37;;;-0.70;99.90;;;;;;5091600;28;20292;-50
2023/03/16 01:38:29;;;;;;;356.20;326.93;;;-0.80;99.90;;;;;;5090722;28;20224;-50
2023/03/16 01:40:59;;;;;;;366.43;335.40;;;-0.80;99.90;;;;;;5090552;28;20305;-51
2023/03/16 01:43:29;;;;;;;289.00;260.63;;;-0.90;99.90;;;;;;5090218;28;20248;-51
2023/03/16 01:46:23;;;;;;;344.33;314.33;;;-0.90;99.90;;;;;;5090218;28;20237;-51
2023/03/16 01:49:06;;;;;;;650.97;586.57;;;-0.90;99.90;;;;;;5090308;28;20312;-50
2023/03/16 01:51:40;;;;;;;693.77;572.90;;;-0.90;99.90;;;;;;5089755;28;20198;-50
2023/03/16 01:54:15;;;;;;;718.17;633.93;;;-0.90;99.90;;;;;;5090214;28;20247;-50
2023/03/16 01:56:51;;;;;;;436.37;396.60;;;-0.90;99.90;;;;;;5089548;28;20653;-50
2023/03/16 01:59:23;;;;;;;668.60;604.23;;;-0.90;99.90;;;;;;5089796;28;20821;-50
2023/03/16 02:01:52;;;;;;;544.83;473.07;;;-0.90;99.90;;;;;;5089687;28;20679;-50
2023/03/16 02:04:32;;;;;;;636.50;537.87;;;-0.90;99.90;;;;;;5089714;28;20248;-50
2023/03/16 02:07:01;;;;;;;533.17;466.03;;;-0.90;99.90;;;;;;5089443;28;20300;-50
2023/03/16 02:09:29;;;;;;;359.97;326.43;;;-1.00;99.90;;;;;;5090469;28;20320;-50
2023/03/16 02:12:00;;;;;;;389.80;354.10;;;-1.00;99.90;;;;;;5092384;28;20222;-51
2023/03/16 02:14:28;;;;;;;399.13;365.07;;;-1.00;99.90;;;;;;5095895;28;20266;-50
2023/03/16 02:16:57;;;;;;;637.07;518.17;;;-1.00;99.90;;;;;;5094328;28;20292;-50
2023/03/16 02:19:37;;;;;;;501.53;451.63;;;-1.00;99.90;;;;;;5090266;28;20292;-51
2023/03/16 02:22:07;;;;;;;741.57;663.13;;;-1.00;99.90;;;;;;5089279;28;20674;-49
2023/03/16 02:24:36;;;;;;;650.50;479.60;;;-1.10;99.90;;;;;;5089478;28;20222;-50
2023/03/16 02:27:09;;;;;;;554.93;498.03;;;-1.10;99.90;;;;;;5089855;28;20248;-50
2023/03/16 02:30:04;;;;;;;471.33;399.77;;;-1.10;99.90;;;;;;5089283;28;20273;-50
2023/03/16 02:32:34;;;;;;;501.90;456.43;;;-1.10;99.90;;;;;;5087091;28;20235;-51
2023/03/16 02:35:03;;;;;;;539.40;489.60;;;-1.10;99.90;;;;;;5089477;28;20270;-50
2023/03/16 02:37:32;;;;;;;380.47;343.20;;;-1.20;99.90;;;;;;5089498;28;20216;-51
2023/03/16 02:40:01;;;;;;;706.33;563.17;;;-1.20;99.90;;;;;;5089155;28;20208;-51
2023/03/16 02:42:30;;;;;;;630.83;568.67;;;-1.20;99.90;;;;;;5089270;28;20237;-50
2023/03/16 02:45:00;;;;;;;510.47;463.67;;;-1.20;99.90;;;;;;5089546;28;20304;-50
2023/03/16 02:47:34;;;;;;;411.77;376.27;;;-1.20;99.90;;;;;;5088821;28;20223;-50
2023/03/16 02:50:05;;;;;;;776.00;693.27;;;-1.20;99.90;;;;;;5089069;28;20946;-50
2023/03/16 02:52:34;;;;;;;611.67;544.93;;;-1.20;99.90;;;;;;5088798;28;20237;-49
2023/03/16 02:55:02;;;;;;;469.20;424.30;;;-1.30;99.90;;;;;;5088532;28;20221;-50
2023/03/16 02:57:31;;;;;;;704.00;626.43;;;-1.30;99.90;;;;;;5088850;28;20218;-50
2023/03/16 03:00:00;;;;;;;647.87;584.83;;;-1.20;99.90;;;;;;5089107;28;20216;-49
2023/03/16 03:02:28;;;;;;;474.40;429.57;;;-1.30;99.90;;;;;;5088341;28;20255;-50
2023/03/16 03:04:57;;;;;;;571.97;510.10;;;-1.30;99.90;;;;;;5089102;28;20213;-50
2023/03/16 03:07:30;;;;;;;365.00;334.50;;;-1.30;99.90;;;;;;5088668;28;20220;-49
2023/03/16 03:09:58;;;;;;;582.47;528.70;;;-1.30;99.90;;;;;;5091287;28;20217;-50
2023/03/16 03:12:26;;;;;;;394.70;357.60;;;-1.30;99.90;;;;;;5092890;28;20213;-50
2023/03/16 03:14:56;;;;;;;678.20;608.43;;;-1.40;99.90;;;;;;5092934;28;20235;-50
2023/03/16 03:17:28;;;;;;;701.80;579.97;;;-1.40;99.90;;;;;;5093172;28;20262;-49
2023/03/16 03:19:58;;;;;;;859.77;739.73;;;-1.40;99.90;;;;;;5092912;28;20267;-50
2023/03/16 03:22:27;;;;;;;744.10;604.17;;;-1.40;99.90;;;;;;5092807;28;20734;-51
2023/03/16 03:24:55;;;;;;;593.23;521.30;;;-1.40;99.90;;;;;;5093228;28;20208;-49
2023/03/16 03:27:23;;;;;;;400.30;369.10;;;-1.40;99.90;;;;;;5093064;28;20201;-49
2023/03/16 03:29:51;;;;;;;802.70;661.63;;;-1.40;99.90;;;;;;5092732;28;20241;-51
2023/03/16 03:32:19;;;;;;;420.10;387.10;;;-1.40;99.90;;;;;;5092780;28;20317;-51
2023/03/16 03:34:47;;;;;;;580.23;520.47;;;-1.40;99.90;;;;;;5092389;28;20744;-50
2023/03/16 03:37:17;;;;;;;535.90;482.73;;;-1.40;99.90;;;;;;5092710;28;20197;-50
2023/03/16 03:39:45;;;;;;;648.87;563.77;;;-1.40;99.90;;;;;;5092836;28;20255;-51
2023/03/16 03:42:13;;;;;;;565.90;511.47;;;-1.40;99.90;;;;;;5092857;28;20581;-50
2023/03/16 03:44:41;;;;;;;522.27;473.53;;;-1.40;99.90;;;;;;5092462;28;20295;-50
2023/03/16 03:47:09;;;;;;;561.07;511.23;;;-1.40;99.90;;;;;;5092464;28;20240;-50
2023/03/16 03:49:37;;;;;;;773.23;629.93;;;-1.50;99.90;;;;;;5092476;28;20236;-51
2023/03/16 03:52:05;;;;;;;507.00;455.77;;;-1.50;99.90;;;;;;5092311;28;20300;-51
2023/03/16 03:54:35;;;;;;;653.37;580.53;;;-1.50;99.90;;;;;;5071921;28;20230;-50
2023/03/16 03:57:03;;;;;;;576.77;521.97;;;-1.50;99.90;;;;;;5072147;28;20201;-50
2023/03/16 03:59:31;;;;;;;416.27;378.37;;;-1.50;99.90;;;;;;5071833;28;20593;-49
2023/03/16 04:01:59;;;;;;;492.70;447.03;;;-1.50;99.90;;;;;;5071751;28;20757;-49
2023/03/16 04:04:27;;;;;;;461.40;422.47;;;-1.50;99.90;;;;;;5071892;28;20225;-49
2023/03/16 04:06:55;;;;;;;722.43;589.27;;;-1.60;99.90;;;;;;5091911;28;20294;-49
2023/03/16 04:09:23;;;;;;;469.90;430.33;;;-1.60;99.90;;;;;;5091755;28;20229;-50
2023/03/16 04:11:56;;;;;;;286.10;262.23;;;-1.60;99.90;;;;;;5091897;28;20263;-48
2023/03/16 04:14:24;;;;;;;457.93;412.60;;;-1.60;99.90;;;;;;5091714;28;20230;-50
2023/03/16 04:16:53;;;;;;;571.63;513.67;;;-1.60;99.90;;;;;;5092028;28;20304;-50
2023/03/16 04:19:21;;;;;;;677.03;578.70;;;-1.60;99.90;;;;;;5092059;28;20325;-50
2023/03/16 04:21:49;;;;;;;920.33;800.77;;;-1.70;99.90;;;;;;5091942;28;20292;-50
2023/03/16 04:24:18;;;;;;;720.80;609.10;;;-1.60;99.90;;;;;;5092024;28;20309;-50
2023/03/16 04:26:46;;;;;;;652.57;478.40;;;-1.60;99.90;;;;;;5091926;28;20261;-50
2023/03/16 04:29:17;;;;;;;427.13;387.10;;;-1.70;99.90;;;;;;5091834;28;20257;-51
2023/03/16 04:31:45;;;;;;;687.13;546.73;;;-1.70;99.90;;;;;;5091539;28;20381;-49
2023/03/16 04:34:14;;;;;;;658.33;525.20;;;-1.70;99.90;;;;;;5091368;28;20229;-49
2023/03/16 04:36:42;;;;;;;598.60;532.37;;;-1.70;99.90;;;;;;5091390;28;20241;-50
2023/03/16 04:39:10;;;;;;;437.87;395.87;;;-1.70;99.90;;;;;;5091468;28;20283;-49
2023/03/16 04:41:38;;;;;;;503.30;449.97;;;-1.70;99.90;;;;;;5091768;28;20204;-49
2023/03/16 04:44:06;;;;;;;636.47;539.50;;;-1.70;99.90;;;;;;5092342;28;20228;-50
2023/03/16 04:46:35;;;;;;;701.20;626.50;;;-1.70;99.90;;;;;;5096103;28;20215;-51
2023/03/16 04:49:04;;;;;;;834.17;746.63;;;-1.70;99.90;;;;;;5092787;28;20698;-50
2023/03/16 04:51:31;;;;;;;797.70;653.23;;;-1.60;99.90;;;;;;5093221;28;20223;-49
2023/03/16 04:53:59;;;;;;;552.47;499.80;;;-1.60;99.90;;;;;;5095042;28;20264;-50
2023/03/16 04:56:27;;;;;;;619.13;557.63;;;-1.60;99.90;;;;;;5093132;28;20713;-50
2023/03/16 04:58:56;;;;;;;450.67;400.77;;;-1.60;99.90;;;;;;5090976;28;20303;-50
2023/03/16 05:01:24;;;;;;;610.90;545.10;;;-1.60;99.90;;;;;;5091343;28;20291;-51
2023/03/16 05:03:54;;;;;;;256.33;236.00;;;-1.60;99.90;;;;;;5091303;28;20729;-50
2023/03/16 05:06:22;;;;;;;1009.87;766.13;;;-1.60;99.90;;;;;;5090585;28;20307;-50
2023/03/16 05:08:50;;;;;;;638.73;551.57;;;-1.60;99.90;;;;;;5091075;28;20301;-50
2023/03/16 05:11:17;;;;;;;531.03;477.40;;;-1.60;99.90;;;;;;5090867;28;20868;-50
2023/03/16 05:13:45;;;;;;;497.40;444.47;;;-1.60;99.90;;;;;;5090754;28;20800;-50
2023/03/16 05:16:13;;;;;;;535.33;482.63;;;-1.60;99.90;;;;;;5090782;28;20309;-50
2023/03/16 05:18:42;;;;;;;462.43;418.23;;;-1.60;99.90;;;;;;5090643;28;20208;-50
2023/03/16 05:21:11;;;;;;;254.63;234.97;;;-1.60;99.90;;;;;;5090803;28;20216;-50
2023/03/16 05:23:39;;;;;;;621.60;565.73;;;-1.60;99.90;;;;;;5091020;28;20228;-50
2023/03/16 05:26:07;;;;;;;444.37;388.97;;;-1.50;99.90;;;;;;5091164;28;20309;-50
2023/03/16 05:28:35;;;;;;;736.00;612.33;;;-1.50;99.90;;;;;;5090601;28;20204;-49
2023/03/16 05:31:03;;;;;;;568.07;517.20;;;-1.50;99.90;;;;;;5091136;28;20247;-48
2023/03/16 05:33:31;;;;;;;395.27;359.43;;;-1.50;99.90;;;;;;5089945;28;20232;-49
2023/03/16 05:36:01;;;;;;;423.47;380.40;;;-1.40;99.90;;;;;;5090193;28;20257;-50
2023/03/16 05:38:31;;;;;;;329.00;296.47;;;-1.30;99.90;;;;;;5090154;28;20239;-50
2023/03/16 05:41:03;;;;;;;284.10;258.73;;;-1.30;99.90;;;;;;5090485;28;20206;-49
2023/03/16 05:43:33;;;;;;;357.50;322.83;;;-1.20;99.90;;;;;;5089784;28;20726;-50
2023/03/16 05:46:01;;;;;;;349.77;321.10;;;-1.20;99.90;;;;;;5090343;28;20255;-49
2023/03/16 05:48:29;;;;;;;405.80;371.13;;;-1.10;99.90;;;;;;5090275;28;20210;-50
2023/03/16 05:50:57;;;;;;;424.17;378.93;;;-1.10;99.90;;;;;;5090282;28;20295;-49
2023/03/16 05:53:27;;;;;;;552.47;494.43;;;-1.00;99.90;;;;;;5090016;28;20665;-51
2023/03/16 05:55:57;;;;;;;667.00;571.87;;;-1.00;99.90;;;;;;5090088;28;20231;-51
2023/03/16 05:58:25;;;;;;;571.93;511.80;;;-0.90;99.90;;;;;;5089304;28;20204;-50
2023/03/16 06:00:54;;;;;;;427.37;382.20;;;-0.90;99.90;;;;;;5089555;28;20795;-49
2023/03/16 06:03:22;;;;;;;274.03;249.00;;;-0.80;99.90;;;;;;5089946;28;20230;-50
2023/03/16 06:05:50;;;;;;;433.13;395.93;;;-0.70;99.90;;;;;;5089532;28;20260;-51
2023/03/16 06:08:18;;;;;;;168.47;153.83;;;-0.60;99.90;;;;;;5089844;28;20296;-51
2023/03/16 06:10:47;;;;;;;181.43;165.00;;;-0.50;99.90;;;;;;5089885;28;20206;-50
2023/03/16 06:13:16;;;;;;;383.73;348.70;;;-0.40;99.90;;;;;;5089476;28;20326;-50
2023/03/16 06:15:44;;;;;;;127.10;114.97;;;-0.40;99.90;;;;;;5089291;28;20257;-50
2023/03/16 06:18:12;;;;;;;138.30;110.43;;;-0.40;99.90;;;;;;5089710;28;20215;-50
2023/03/16 06:20:40;;;;;;;236.07;212.73;;;-0.30;99.90;;;;;;5069529;28;20209;-50
2023/03/16 06:23:08;;;;;;;150.13;134.13;;;-0.30;99.90;;;;;;5069615;28;20315;-50
2023/03/16 06:25:36;;;;;;;137.87;125.00;;;-0.30;99.90;;;;;;5069278;28;20215;-50
2023/03/16 06:28:08;;;;;;;138.43;124.70;;;-0.20;99.90;;;;;;5069546;28;20197;-49
2023/03/16 06:30:37;;;;;;;294.83;262.47;;;-0.20;99.90;;;;;;5069087;28;20216;-50
2023/03/16 06:33:05;;;;;;;84.70;65.80;;;-0.10;99.90;;;;;;5089185;28;20222;-50
2023/03/16 06:35:33;;;;;;;274.03;139.40;;;-0.10;99.90;;;;;;5089270;28;20226;-50
2023/03/16 06:38:01;;;;;;;289.23;255.23;;;0.00;99.90;;;;;;5089668;28;20224;-50
2023/03/16 06:40:29;;;;;;;135.93;121.47;;;0.10;99.90;;;;;;5089621;28;20206;-50
2023/03/16 06:42:57;;;;;;;250.10;171.53;;;0.10;99.90;;;;;;5088894;28;20664;-50
2023/03/16 06:45:26;;;;;;;243.20;218.87;;;0.20;99.90;;;;;;5088057;28;20703;-51
2023/03/16 06:47:55;;;;;;;257.43;227.13;;;0.30;99.90;;;;;;5097866;28;20280;-51
2023/03/16 06:50:23;;;;;;;278.20;231.47;;;0.40;99.90;;;;;;5098953;28;20227;-51
2023/03/16 06:52:51;;;;;;;222.43;134.00;;;0.40;99.90;;;;;;5096274;28;20258;-51
2023/03/16 06:55:19;;;;;;;130.47;116.83;;;0.50;99.90;;;;;;5084631;28;20773;-51
2023/03/16 06:57:47;;;;;;;220.13;199.63;;;0.50;99.90;;;;;;5068827;28;20303;-51
2023/03/16 07:00:16;;;;;;;168.43;152.60;;;0.60;99.90;;;;;;5082787;28;20252;-51
2023/03/16 07:02:44;;;;;;;238.27;182.73;;;0.70;99.90;;;;;;5088962;28;20312;-51
2023/03/16 07:05:13;;;;;;;210.83;189.10;;;0.80;99.90;;;;;;5089040;28;20306;-51
2023/03/16 07:07:42;;;;;;;172.63;156.87;;;0.90;99.90;;;;;;5089078;28;20661;-52
2023/03/16 07:10:11;;;;;;;133.97;120.93;;;1.00;99.90;;;;;;5089398;28;20283;-52
2023/03/16 07:12:41;;;;;;;228.23;204.73;;;1.20;99.90;;;;;;5088635;28;20695;-50
2023/03/16 07:15:10;;;;;;;157.50;141.53;;;1.30;99.90;;;;;;5089229;28;20208;-50
2023/03/16 07:17:38;;;;;;;143.40;130.17;;;1.50;99.90;;;;;;5088853;28;20631;-51
2023/03/16 07:20:09;;;;;;;213.90;149.93;;;1.90;99.90;;;;;;5089217;28;20248;-51
2023/03/16 07:22:40;;;;;;;533.30;246.17;;;2.40;99.90;;;;;;5088417;28;20796;-51
2023/03/16 07:25:10;;;;;;;279.87;156.93;;;2.70;99.90;;;;;;5088428;28;20616;-51
2023/03/16 07:27:40;;;;;;;1744.97;682.13;;;3.10;99.90;;;;;;5088911;28;20200;-52
2023/03/16 07:30:10;;;;;;;1477.10;699.73;;;3.20;99.90;;;;;;5088816;28;20210;-51
2023/03/16 07:32:38;;;;;;;1776.90;668.67;;;3.40;99.90;;;;;;5088889;28;20239;-50
2023/03/16 07:35:07;;;;;;;1999.90;727.97;;;3.60;99.90;;;;;;5088316;28;20206;-51
2023/03/16 07:37:35;;;;;;;1999.90;681.13;;;3.80;99.90;;;;;;5088801;28;20315;-51
2023/03/16 07:40:08;;;;;;;1999.90;928.30;;;4.00;99.90;;;;;;5088855;28;20679;-51
2023/03/16 07:42:36;;;;;;;1999.90;986.57;;;4.10;99.90;;;;;;5088596;28;20287;-52
2023/03/16 07:45:06;;;;;;;1999.90;731.60;;;4.30;99.90;;;;;;5088612;28;20240;-52
2023/03/16 07:47:34;;;;;;;1999.90;847.67;;;4.40;99.90;;;;;;5088809;28;20239;-52
2023/03/16 07:50:02;;;;;;;1999.90;923.53;;;4.50;99.90;;;;;;5088389;28;20334;-50
2023/03/16 07:52:30;;;;;;;1999.90;816.43;;;4.80;99.90;;;;;;5088482;28;20218;-52
2023/03/16 07:54:58;;;;;;;1999.90;686.13;;;4.90;99.90;;;;;;5088674;28;20814;-52
2023/03/16 07:57:27;;;;;;;1999.90;753.33;;;5.10;99.90;;;;;;5092094;28;20323;-51
2023/03/16 07:59:55;;;;;;;1999.90;838.20;;;5.20;99.90;;;;;;5091948;28;20673;-51
2023/03/16 08:02:23;;;;;;;1999.90;844.27;;;5.30;99.90;;;;;;5091936;28;20682;-51
2023/03/16 08:04:51;;;;;;;1999.90;843.70;;;5.10;99.90;;;;;;5091979;28;20710;-51
2023/03/16 08:07:19;;;;;;;1974.63;701.20;;;5.10;99.90;;;;;;5091633;28;20280;-51
2023/03/16 08:09:47;;;;;;;1999.90;705.80;;;5.10;99.90;;;;;;5092309;28;20200;-52
2023/03/16 08:12:15;;;;;;;1203.10;536.47;;;5.00;99.90;;;;;;5091835;28;20330;-50
2023/03/16 08:14:45;;;;;;;394.07;261.37;;;5.00;99.90;;;;;;5091954;28;20658;-50
2023/03/16 08:17:13;;;;;;;1347.43;487.90;;;5.00;99.90;;;;;;5091555;28;20634;-51
2023/03/16 08:19:41;;;;;;;610.10;241.73;;;5.10;99.90;;;;;;5091357;28;20672;-51
2023/03/16 08:22:09;;;;;;;632.03;315.87;;;5.10;99.90;;;;;;5085204;28;20215;-51
2023/03/16 08:24:37;;;;;;;1332.63;445.73;;;5.20;99.90;;;;;;5074851;28;20283;-52
2023/03/16 08:27:06;;;;;;;1320.20;518.10;;;5.30;99.90;;;;;;5091332;28;20672;-51
2023/03/16 08:29:34;;;;;;;1999.90;736.83;;;5.30;99.90;;;;;;5091576;28;20204;-51
2023/03/16 08:32:03;;;;;;;260.80;206.80;;;5.30;99.90;;;;;;5091585;28;20240;-50
2023/03/16 08:34:31;;;;;;;963.63;292.97;;;5.30;99.90;;;;;;5091119;28;20708;-51
2023/03/16 08:37:00;;;;;;;454.23;248.13;;;5.40;99.90;;;;;;5090871;28;20890;-50
2023/03/16 08:39:28;;;;;;;1811.53;628.93;;;5.40;99.90;;;;;;5080483;28;20242;-51
2023/03/16 08:41:56;;;;;;;1999.90;961.47;;;5.40;99.90;;;;;;5071227;28;20316;-51
2023/03/16 08:44:25;;;;;;;1999.90;713.87;;;5.40;99.90;;;;;;5072612;28;20340;-51
2023/03/16 08:46:53;;;;;;;1101.07;390.93;;;5.50;99.90;;;;;;5091359;28;20305;-51
2023/03/16 08:49:22;;;;;;;1999.90;687.13;;;5.50;99.90;;;;;;5091143;28;20784;-51
2023/03/16 08:51:51;;;;;;;1999.90;604.97;;;5.40;99.90;;;;;;5091034;28;20304;-51
2023/03/16 08:54:19;;;;;;;1712.10;544.57;;;5.50;99.90;;;;;;5091182;28;20601;-51
2023/03/16 08:56:46;;;;;;;1999.90;878.60;;;5.40;99.90;;;;;;5091091;28;20261;-51
2023/03/16 08:59:14;;;;;;;1999.90;593.13;;;5.40;99.90;;;;;;5070773;28;20294;-51
2023/03/16 09:01:56;;;;;;;1999.90;725.73;;;5.40;99.90;;;;;;5079569;28;20199;-51
2023/03/16 09:04:27;;;;;;;1892.27;657.73;;;5.50;99.90;;;;;;5091151;28;20241;-50
2023/03/16 09:06:55;;;;;;;1999.90;840.47;;;5.60;99.90;;;;;;5090377;28;20199;-51
2023/03/16 09:09:35;;;;;;;1999.90;669.80;;;5.70;99.90;;;;;;5091215;28;20217;-52
2023/03/16 09:12:04;;;;;;;1212.27;490.33;;;5.70;99.90;;;;;;5090688;28;20748;-52
2023/03/16 09:14:33;;;;;;;1999.90;602.73;;;5.80;99.90;;;;;;5091135;28;20348;-51
2023/03/16 09:17:01;;;;;;;1478.00;464.67;;;5.80;99.90;;;;;;5090682;28;20273;-50
2023/03/16 09:19:32;;;;;;;1999.90;848.30;;;5.90;99.90;;;;;;5080804;28;20216;-51
2023/03/16 09:22:18;;;;;;;1999.90;818.53;;;6.00;99.90;;;;;;5078699;28;20215;-51
2023/03/16 09:24:47;;;;;;;1690.90;548.47;;;6.00;99.90;;;;;;5070207;28;20573;-49
2023/03/16 09:27:15;;;;;;;1999.90;757.03;;;6.10;99.90;;;;;;5080599;28;20234;-51
2023/03/16 09:29:44;;;;;;;1999.90;867.67;;;6.20;99.90;;;;;;5090645;28;20200;-52
2023/03/16 09:32:13;;;;;;;1999.90;963.23;;;6.30;99.90;;;;;;5090003;28;20211;-51
2023/03/16 09:34:43;;;;;;;1999.90;999.90;;;6.40;99.90;;;;;;5090483;28;20233;-51
2023/03/16 09:37:11;;;;;;;1999.90;876.13;;;6.50;99.90;;;;;;5089972;28;20236;-50
2023/03/16 09:39:39;;;;;;;1990.63;537.50;;;6.40;99.90;;;;;;5090301;28;20287;-50
2023/03/16 09:42:18;;;;;;;1999.90;999.90;;;6.50;99.90;;;;;;5090620;28;20212;-50
2023/03/16 09:44:54;;;;;;;1999.90;938.80;;;6.50;99.90;;;;;;5090402;28;20231;-50
2023/03/16 09:47:27;;;;;;;1999.90;842.43;;;6.60;99.90;;;;;;5090220;28;20230;-51
2023/03/16 09:49:58;;;;;;;1999.90;897.80;;;6.50;99.90;;;;;;5089966;28;20291;-51
2023/03/16 09:52:35;;;;;;;1999.90;946.43;;;6.60;99.90;;;;;;5090026;28;20208;-51
2023/03/16 09:55:10;;;;;;;1999.90;826.03;;;6.70;99.90;;;;;;5074195;28;20266;-52
2023/03/16 09:57:41;;;;;;;1999.90;999.90;;;6.60;99.90;;;;;;5089554;28;20783;-50
2023/03/16 10:00:17;;;;;;;1999.90;922.37;;;6.70;99.90;;;;;;5089287;28;20225;-50
2023/03/16 10:03:02;;;;;;;1999.90;999.90;;;6.70;99.90;;;;;;5089532;28;20735;-50
2023/03/16 10:05:33;;;;;;;1999.90;926.60;;;6.70;99.90;;;;;;5089660;28;20311;-51
2023/03/16 10:08:11;;;;;;;1999.90;984.07;;;6.70;99.90;;;;;;5089868;28;20196;-51
2023/03/16 10:11:02;;;;;;;1999.90;999.90;;;6.80;99.90;;;;;;5089676;28;20257;-50
2023/03/16 10:13:40;;;;;;;1999.90;938.87;;;6.90;99.90;;;;;;5089447;28;20416;-51
2023/03/16 10:16:12;;;;;;;1999.90;940.30;;;6.90;99.90;;;;;;5089750;28;20243;-52
2023/03/16 10:18:44;;;;;;;1999.90;999.90;;;7.00;99.90;;;;;;5088977;28;20216;-51
2023/03/16 10:21:17;;;;;;;1999.90;999.90;;;7.20;99.90;;;;;;5089538;28;20205;-51
2023/03/16 10:23:47;;;;;;;1999.90;999.90;;;7.20;99.90;;;;;;5089520;28;20220;-51
2023/03/16 10:26:20;;;;;;;1999.90;999.90;;;7.30;99.90;;;;;;5089825;28;20223;-51
2023/03/16 10:28:49;;;;;;;1999.90;999.90;;;7.40;99.90;;;;;;5089371;28;20185;-51
2023/03/16 10:31:21;;;;;;;1999.90;999.90;;;7.40;99.90;;;;;;5088549;28;20203;-50
2023/03/16 10:33:54;;;;;;;1999.90;999.90;;;7.50;99.90;;;;;;5089257;28;20635;-52
2023/03/16 10:36:31;;;;;;;1999.90;999.90;;;7.50;99.90;;;;;;5089217;28;20292;-51
2023/03/16 10:39:02;;;;;;;1999.90;999.90;;;7.50;99.90;;;;;;5083255;28;20220;-51
2023/03/16 10:41:32;;;;;;;1999.90;999.90;;;7.60;99.90;;;;;;5078262;28;20204;-51
2023/03/16 10:44:06;;;;;;;1999.90;999.90;;;7.60;99.90;;;;;;5089103;28;20318;-51
2023/03/16 10:46:39;;;;;;;1999.90;999.90;;;7.60;99.90;;;;;;5088960;28;20239;-52
2023/03/16 10:49:20;;;;;;;1999.90;999.90;;;7.60;99.90;;;;;;5089455;28;20223;-51
2023/03/16 10:51:50;;;;;;;1999.90;999.90;;;7.60;99.90;;;;;;5088544;28;20207;-51
2023/03/16 10:54:23;;;;;;;1999.90;999.90;;;7.70;99.90;;;;;;5089503;28;20310;-51
2023/03/16 10:56:51;;;;;;;1999.90;999.90;;;7.80;99.90;;;;;;5089547;28;20652;-51
2023/03/16 10:59:30;;;;;;;1999.90;999.90;;;7.80;99.90;;;;;;5088772;28;20234;-50
2023/03/16 11:02:00;;;;;;;1999.90;999.90;;;7.90;99.90;;;;;;5089227;28;20218;-51
2023/03/16 11:04:31;;;;;;;1999.90;999.90;;;8.00;99.90;;;;;;5088811;28;20318;-51
2023/03/16 11:07:01;;;;;;;1999.90;999.90;;;8.00;99.90;;;;;;5091831;28;20208;-51
2023/03/16 11:09:33;;;;;;;1999.90;999.90;;;8.10;99.90;;;;;;5093879;28;20204;-50
2023/03/16 11:12:12;;;;;;;1999.90;999.90;;;7.90;99.90;;;;;;5087457;28;20219;-52
2023/03/16 11:14:43;;;;;;;1999.90;999.90;;;8.00;99.90;;;;;;5092450;28;20333;-51
2023/03/16 11:17:16;;;;;;;1999.90;999.90;;;8.00;99.90;;;;;;5092147;28;20302;-51
2023/03/16 11:19:51;;;;;;;1999.90;999.90;;;7.90;99.90;;;;;;5089693;28;20677;-51
2023/03/16 11:22:24;;;;;;;1999.90;999.90;;;7.90;99.90;;;;;;5088083;28;20235;-51
2023/03/16 11:25:12;;;;;;;1999.90;999.90;;;8.00;99.90;;;;;;5087965;28;20232;-51
2023/03/16 11:27:44;;;;;;;1999.90;999.90;;;8.10;99.90;;;;;;5087558;28;20308;-51
2023/03/16 11:30:18;;;;;;;1999.90;999.90;;;8.20;99.90;;;;;;5088523;28;20227;-51
2023/03/16 11:32:49;;;;;;;1999.90;999.90;;;8.30;99.90;;;;;;5091926;28;20371;-51
2023/03/16 11:35:20;;;;;;;1999.90;999.90;;;8.40;99.90;;;;;;5091879;28;20246;-51
2023/03/16 11:38:08;;;;;;;1999.90;999.90;;;8.50;99.90;;;;;;5091295;28;20283;-52
2023/03/16 11:40:46;;;;;;;1999.90;999.90;;;8.80;99.90;;;;;;5091703;28;20246;-51
2023/03/16 11:43:36;;;;;;;1999.90;999.90;;;9.00;99.90;;;;;;5091574;28;20301;-51
2023/03/16 11:46:14;;;;;;;1999.90;999.90;;;9.10;99.90;;;;;;5090651;28;20200;-51
2023/03/16 11:48:47;;;;;;;1999.90;999.90;;;9.10;99.90;;;;;;5091621;28;20196;-50
2023/03/16 11:51:35;;;;;;;1999.90;999.90;;;9.20;99.90;;;;;;5091743;28;20591;-51
2023/03/16 11:54:28;;;;;;;1999.90;999.90;;;9.10;99.90;;;;;;5091161;28;20285;-50
2023/03/16 11:57:00;;;;;;;1999.90;999.90;;;9.00;99.90;;;;;;5092484;28;20212;-51
2023/03/16 11:59:55;;;;;;;1999.90;999.90;;;8.90;99.90;;;;;;5091491;28;20220;-51
2023/03/16 12:02:54;;;;;;;1999.90;999.90;;;9.00;99.90;;;;;;5091658;28;20252;-51
2023/03/16 12:05:43;;;;;;;1999.90;999.90;;;9.00;99.90;;;;;;5091242;28;20217;-51
2023/03/16 12:08:29;;;;;;;1999.90;999.90;;;9.10;99.90;;;;;;5091513;28;20208;-52
2023/03/16 12:11:03;;;;;;;1999.90;999.90;;;9.20;99.90;;;;;;5088261;28;20210;-51
2023/03/16 12:13:41;;;;;;;1999.90;999.90;;;9.10;99.90;;;;;;5087525;28;20263;-50
2023/03/16 12:16:15;;;;;;;1999.90;999.90;;;9.10;99.90;;;;;;5090727;28;20206;-50
2023/03/16 12:18:47;;;;;;;1999.90;999.90;;;9.00;99.90;;;;;;5090344;28;20635;-51
2023/03/16 12:21:21;;;;;;;1999.90;999.90;;;9.20;99.90;;;;;;5091677;28;20228;-51
2023/03/16 12:23:52;;;;;;;1999.90;999.90;;;9.20;99.90;;;;;;5071494;28;20232;-51
2023/03/16 12:26:27;;;;;;;1999.90;999.90;;;9.20;99.90;;;;;;5068661;28;20220;-52